sensor_id;sensor_type;location;lat;lon;timestamp;P1;durP1;ratioP1;P2;durP2;ratioP2
42912;SDS011;50720;54.324;18.558;2023-01-16T00:00:50;0.47;;;0.32;;
42912;SDS011;50720;54.324;18.558;2023-01-16T00:03:30;5.20;;;0.63;;
42912;SDS011;50720;54.324;18.558;2023-01-16T00:06:00;1.25;;;0.50;;
42912;SDS011;50720;54.324;18.558;2023-01-16T00:08:30;4.72;;;0.60;;
42912;SDS011;50720;54.324;18.558;2023-01-16T00:10:59;3.00;;;0.68;;
42912;SDS011;50720;54.324;18.558;2023-01-16T00:13:29;1.85;;;0.68;;
42912;SDS011;50720;54.324;18.558;2023-01-16T00:16:00;1.70;;;0.73;;
42912;SDS011;50720;54.324;18.558;2023-01-16T00:18:30;1.88;;;0.70;;
42912;SDS011;50720;54.324;18.558;2023-01-16T00:20:59;4.60;;;1.23;;
42912;SDS011;50720;54.324;18.558;2023-01-16T00:23:30;1.57;;;0.60;;
42912;SDS011;50720;54.324;18.558;2023-01-16T00:25:59;2.60;;;0.80;;
42912;SDS011;50720;54.324;18.558;2023-01-16T00:28:32;2.05;;;0.60;;
42912;SDS011;50720;54.324;18.558;2023-01-16T00:31:05;2.33;;;0.60;;
42912;SDS011;50720;54.324;18.558;2023-01-16T00:33:35;1.60;;;1.13;;
42912;SDS011;50720;54.324;18.558;2023-01-16T00:36:05;4.85;;;0.95;;
42912;SDS011;50720;54.324;18.558;2023-01-16T00:38:35;1.10;;;0.45;;
42912;SDS011;50720;54.324;18.558;2023-01-16T00:41:05;0.95;;;0.60;;
42912;SDS011;50720;54.324;18.558;2023-01-16T00:43:35;3.15;;;0.65;;
42912;SDS011;50720;54.324;18.558;2023-01-16T00:46:06;2.20;;;0.77;;
42912;SDS011;50720;54.324;18.558;2023-01-16T00:48:36;2.80;;;0.70;;
42912;SDS011;50720;54.324;18.558;2023-01-16T00:51:06;3.60;;;0.70;;
42912;SDS011;50720;54.324;18.558;2023-01-16T00:53:35;1.65;;;0.70;;
42912;SDS011;50720;54.324;18.558;2023-01-16T00:56:05;2.08;;;0.65;;
42912;SDS011;50720;54.324;18.558;2023-01-16T00:58:35;1.80;;;0.60;;
42912;SDS011;50720;54.324;18.558;2023-01-16T01:01:06;1.35;;;0.60;;
42912;SDS011;50720;54.324;18.558;2023-01-16T01:03:38;1.95;;;0.60;;
42912;SDS011;50720;54.324;18.558;2023-01-16T01:06:08;1.98;;;0.70;;
42912;SDS011;50720;54.324;18.558;2023-01-16T01:08:39;4.65;;;0.82;;
42912;SDS011;50720;54.324;18.558;2023-01-16T01:11:09;1.65;;;0.60;;
42912;SDS011;50720;54.324;18.558;2023-01-16T01:13:41;3.03;;;1.45;;
42912;SDS011;50720;54.324;18.558;2023-01-16T01:16:12;3.05;;;0.70;;
42912;SDS011;50720;54.324;18.558;2023-01-16T01:18:42;4.97;;;0.63;;
42912;SDS011;50720;54.324;18.558;2023-01-16T01:21:11;2.28;;;0.40;;
42912;SDS011;50720;54.324;18.558;2023-01-16T01:23:41;1.25;;;0.45;;
42912;SDS011;50720;54.324;18.558;2023-01-16T01:26:11;3.28;;;0.80;;
42912;SDS011;50720;54.324;18.558;2023-01-16T01:28:42;3.00;;;0.90;;
42912;SDS011;50720;54.324;18.558;2023-01-16T01:31:13;4.25;;;1.05;;
42912;SDS011;50720;54.324;18.558;2023-01-16T01:33:43;1.67;;;0.50;;
42912;SDS011;50720;54.324;18.558;2023-01-16T01:36:12;3.08;;;0.50;;
42912;SDS011;50720;54.324;18.558;2023-01-16T01:38:42;1.27;;;0.47;;
42912;SDS011;50720;54.324;18.558;2023-01-16T01:41:13;1.08;;;0.38;;
42912;SDS011;50720;54.324;18.558;2023-01-16T01:43:43;2.97;;;0.75;;
42912;SDS011;50720;54.324;18.558;2023-01-16T01:46:24;5.15;;;0.80;;
42912;SDS011;50720;54.324;18.558;2023-01-16T01:48:56;2.03;;;0.47;;
42912;SDS011;50720;54.324;18.558;2023-01-16T01:51:29;4.22;;;0.65;;
42912;SDS011;50720;54.324;18.558;2023-01-16T01:54:06;4.22;;;1.13;;
42912;SDS011;50720;54.324;18.558;2023-01-16T01:56:39;1.08;;;0.55;;
42912;SDS011;50720;54.324;18.558;2023-01-16T01:59:15;1.30;;;0.73;;
42912;SDS011;50720;54.324;18.558;2023-01-16T02:01:50;1.85;;;0.75;;
42912;SDS011;50720;54.324;18.558;2023-01-16T02:04:22;3.08;;;0.77;;
42912;SDS011;50720;54.324;18.558;2023-01-16T02:06:55;2.53;;;0.77;;
42912;SDS011;50720;54.324;18.558;2023-01-16T02:09:28;9.70;;;1.70;;
42912;SDS011;50720;54.324;18.558;2023-01-16T02:11:58;1.33;;;0.73;;
42912;SDS011;50720;54.324;18.558;2023-01-16T02:14:33;2.65;;;0.63;;
42912;SDS011;50720;54.324;18.558;2023-01-16T02:17:07;3.53;;;0.70;;
42912;SDS011;50720;54.324;18.558;2023-01-16T02:19:58;7.35;;;1.00;;
42912;SDS011;50720;54.324;18.558;2023-01-16T02:22:45;1.33;;;0.63;;
42912;SDS011;50720;54.324;18.558;2023-01-16T02:25:43;1.20;;;0.60;;
42912;SDS011;50720;54.324;18.558;2023-01-16T02:31:35;1.92;;;0.60;;
42912;SDS011;50720;54.324;18.558;2023-01-16T02:34:23;2.73;;;0.50;;
42912;SDS011;50720;54.324;18.558;2023-01-16T02:37:12;3.28;;;1.02;;
42912;SDS011;50720;54.324;18.558;2023-01-16T02:39:50;2.10;;;0.52;;
42912;SDS011;50720;54.324;18.558;2023-01-16T02:42:32;3.80;;;0.90;;
42912;SDS011;50720;54.324;18.558;2023-01-16T02:45:09;2.28;;;0.77;;
42912;SDS011;50720;54.324;18.558;2023-01-16T02:50:26;1.58;;;0.40;;
42912;SDS011;50720;54.324;18.558;2023-01-16T02:53:00;1.67;;;0.50;;
42912;SDS011;50720;54.324;18.558;2023-01-16T02:55:39;2.50;;;0.80;;
42912;SDS011;50720;54.324;18.558;2023-01-16T02:58:13;0.93;;;0.77;;
42912;SDS011;50720;54.324;18.558;2023-01-16T03:00:50;2.78;;;0.70;;
42912;SDS011;50720;54.324;18.558;2023-01-16T03:03:35;2.15;;;0.60;;
42912;SDS011;50720;54.324;18.558;2023-01-16T03:06:13;1.63;;;0.50;;
42912;SDS011;50720;54.324;18.558;2023-01-16T03:11:33;4.70;;;1.08;;
42912;SDS011;50720;54.324;18.558;2023-01-16T03:14:14;2.92;;;0.90;;
42912;SDS011;50720;54.324;18.558;2023-01-16T03:16:56;1.33;;;0.80;;
42912;SDS011;50720;54.324;18.558;2023-01-16T03:19:42;1.50;;;0.50;;
42912;SDS011;50720;54.324;18.558;2023-01-16T03:22:19;4.13;;;0.90;;
42912;SDS011;50720;54.324;18.558;2023-01-16T03:24:59;2.80;;;0.70;;
42912;SDS011;50720;54.324;18.558;2023-01-16T03:27:40;1.83;;;0.98;;
42912;SDS011;50720;54.324;18.558;2023-01-16T03:30:19;5.57;;;1.08;;
42912;SDS011;50720;54.324;18.558;2023-01-16T03:32:57;3.50;;;0.60;;
42912;SDS011;50720;54.324;18.558;2023-01-16T03:35:34;2.92;;;1.10;;
42912;SDS011;50720;54.324;18.558;2023-01-16T03:38:09;6.60;;;0.70;;
42912;SDS011;50720;54.324;18.558;2023-01-16T03:40:42;1.40;;;0.60;;
42912;SDS011;50720;54.324;18.558;2023-01-16T03:43:15;1.92;;;0.75;;
42912;SDS011;50720;54.324;18.558;2023-01-16T03:45:49;4.70;;;0.70;;
42912;SDS011;50720;54.324;18.558;2023-01-16T03:48:24;2.30;;;0.75;;
42912;SDS011;50720;54.324;18.558;2023-01-16T03:51:02;2.70;;;0.70;;
42912;SDS011;50720;54.324;18.558;2023-01-16T03:53:35;1.27;;;0.50;;
42912;SDS011;50720;54.324;18.558;2023-01-16T03:56:10;1.63;;;0.77;;
42912;SDS011;50720;54.324;18.558;2023-01-16T03:58:49;4.97;;;1.17;;
42912;SDS011;50720;54.324;18.558;2023-01-16T04:01:22;2.78;;;0.95;;
42912;SDS011;50720;54.324;18.558;2023-01-16T04:03:57;3.53;;;0.90;;
42912;SDS011;50720;54.324;18.558;2023-01-16T04:06:34;2.08;;;0.65;;
42912;SDS011;50720;54.324;18.558;2023-01-16T04:09:10;4.88;;;0.65;;
42912;SDS011;50720;54.324;18.558;2023-01-16T04:11:44;2.05;;;0.80;;
42912;SDS011;50720;54.324;18.558;2023-01-16T04:14:15;3.45;;;0.63;;
42912;SDS011;50720;54.324;18.558;2023-01-16T04:16:49;1.80;;;0.73;;
42912;SDS011;50720;54.324;18.558;2023-01-16T04:19:20;3.17;;;0.70;;
42912;SDS011;50720;54.324;18.558;2023-01-16T04:21:53;5.13;;;2.53;;
42912;SDS011;50720;54.324;18.558;2023-01-16T04:24:23;2.22;;;0.75;;
42912;SDS011;50720;54.324;18.558;2023-01-16T04:26:53;3.40;;;0.85;;
42912;SDS011;50720;54.324;18.558;2023-01-16T04:29:22;3.15;;;0.90;;
42912;SDS011;50720;54.324;18.558;2023-01-16T04:31:53;1.77;;;0.63;;
42912;SDS011;50720;54.324;18.558;2023-01-16T04:34:23;2.03;;;0.90;;
42912;SDS011;50720;54.324;18.558;2023-01-16T04:36:54;2.85;;;0.60;;
42912;SDS011;50720;54.324;18.558;2023-01-16T04:39:23;1.80;;;0.75;;
42912;SDS011;50720;54.324;18.558;2023-01-16T04:41:53;1.80;;;0.82;;
42912;SDS011;50720;54.324;18.558;2023-01-16T04:44:23;2.67;;;0.98;;
42912;SDS011;50720;54.324;18.558;2023-01-16T04:46:53;3.25;;;1.05;;
42912;SDS011;50720;54.324;18.558;2023-01-16T04:49:22;5.38;;;0.60;;
42912;SDS011;50720;54.324;18.558;2023-01-16T04:51:53;3.75;;;1.10;;
42912;SDS011;50720;54.324;18.558;2023-01-16T04:54:23;2.50;;;0.85;;
42912;SDS011;50720;54.324;18.558;2023-01-16T04:56:53;1.73;;;0.90;;
42912;SDS011;50720;54.324;18.558;2023-01-16T04:59:22;5.63;;;0.90;;
42912;SDS011;50720;54.324;18.558;2023-01-16T05:01:52;5.13;;;1.60;;
42912;SDS011;50720;54.324;18.558;2023-01-16T05:04:22;4.40;;;1.00;;
42912;SDS011;50720;54.324;18.558;2023-01-16T05:06:54;5.38;;;1.55;;
42912;SDS011;50720;54.324;18.558;2023-01-16T05:09:23;7.30;;;0.95;;
42912;SDS011;50720;54.324;18.558;2023-01-16T05:11:53;3.72;;;0.70;;
42912;SDS011;50720;54.324;18.558;2023-01-16T05:14:22;6.05;;;1.00;;
42912;SDS011;50720;54.324;18.558;2023-01-16T05:16:52;3.22;;;1.10;;
42912;SDS011;50720;54.324;18.558;2023-01-16T05:19:21;3.53;;;0.90;;
42912;SDS011;50720;54.324;18.558;2023-01-16T05:21:51;3.03;;;0.80;;
42912;SDS011;50720;54.324;18.558;2023-01-16T05:24:22;2.40;;;0.75;;
42912;SDS011;50720;54.324;18.558;2023-01-16T05:26:52;3.22;;;0.95;;
42912;SDS011;50720;54.324;18.558;2023-01-16T05:29:21;5.75;;;1.85;;
42912;SDS011;50720;54.324;18.558;2023-01-16T05:31:51;2.22;;;1.00;;
42912;SDS011;50720;54.324;18.558;2023-01-16T05:34:21;2.30;;;1.05;;
42912;SDS011;50720;54.324;18.558;2023-01-16T05:36:51;2.67;;;1.00;;
42912;SDS011;50720;54.324;18.558;2023-01-16T05:39:21;2.03;;;0.77;;
42912;SDS011;50720;54.324;18.558;2023-01-16T05:44:20;3.28;;;0.98;;
42912;SDS011;50720;54.324;18.558;2023-01-16T05:46:50;5.65;;;1.73;;
42912;SDS011;50720;54.324;18.558;2023-01-16T05:49:20;7.13;;;1.77;;
42912;SDS011;50720;54.324;18.558;2023-01-16T05:51:50;3.35;;;1.00;;
42912;SDS011;50720;54.324;18.558;2023-01-16T05:54:19;2.85;;;1.23;;
42912;SDS011;50720;54.324;18.558;2023-01-16T05:56:50;3.70;;;1.40;;
42912;SDS011;50720;54.324;18.558;2023-01-16T05:59:20;4.25;;;1.27;;
42912;SDS011;50720;54.324;18.558;2023-01-16T06:01:49;2.50;;;1.00;;
42912;SDS011;50720;54.324;18.558;2023-01-16T06:04:19;3.80;;;1.50;;
42912;SDS011;50720;54.324;18.558;2023-01-16T06:06:49;2.15;;;1.20;;
42912;SDS011;50720;54.324;18.558;2023-01-16T06:09:19;3.22;;;1.33;;
42912;SDS011;50720;54.324;18.558;2023-01-16T06:11:50;3.47;;;1.00;;
42912;SDS011;50720;54.324;18.558;2023-01-16T06:14:19;2.60;;;1.02;;
42912;SDS011;50720;54.324;18.558;2023-01-16T06:16:49;1.60;;;1.17;;
42912;SDS011;50720;54.324;18.558;2023-01-16T06:19:18;3.80;;;1.40;;
42912;SDS011;50720;54.324;18.558;2023-01-16T06:21:48;5.43;;;1.95;;
42912;SDS011;50720;54.324;18.558;2023-01-16T06:24:17;5.88;;;2.40;;
42912;SDS011;50720;54.324;18.558;2023-01-16T06:26:47;2.95;;;1.17;;
42912;SDS011;50720;54.324;18.558;2023-01-16T06:29:18;3.45;;;1.15;;
42912;SDS011;50720;54.324;18.558;2023-01-16T06:31:48;4.10;;;1.30;;
42912;SDS011;50720;54.324;18.558;2023-01-16T06:34:17;3.92;;;1.40;;
42912;SDS011;50720;54.324;18.558;2023-01-16T06:36:47;1.98;;;1.00;;
42912;SDS011;50720;54.324;18.558;2023-01-16T06:39:17;3.75;;;1.20;;
42912;SDS011;50720;54.324;18.558;2023-01-16T06:41:47;1.98;;;1.13;;
42912;SDS011;50720;54.324;18.558;2023-01-16T06:44:18;2.78;;;1.10;;
42912;SDS011;50720;54.324;18.558;2023-01-16T06:46:48;4.55;;;1.23;;
42912;SDS011;50720;54.324;18.558;2023-01-16T06:49:17;2.15;;;1.70;;
42912;SDS011;50720;54.324;18.558;2023-01-16T06:51:47;3.05;;;2.10;;
42912;SDS011;50720;54.324;18.558;2023-01-16T06:54:16;3.65;;;1.30;;
42912;SDS011;50720;54.324;18.558;2023-01-16T06:56:46;3.95;;;1.48;;
42912;SDS011;50720;54.324;18.558;2023-01-16T06:59:15;2.42;;;1.20;;
42912;SDS011;50720;54.324;18.558;2023-01-16T07:01:46;5.68;;;1.83;;
42912;SDS011;50720;54.324;18.558;2023-01-16T07:04:16;3.85;;;1.45;;
42912;SDS011;50720;54.324;18.558;2023-01-16T07:06:45;5.30;;;1.55;;
42912;SDS011;50720;54.324;18.558;2023-01-16T07:11:46;3.45;;;1.48;;
42912;SDS011;50720;54.324;18.558;2023-01-16T07:14:18;4.75;;;1.27;;
42912;SDS011;50720;54.324;18.558;2023-01-16T07:17:05;3.80;;;1.20;;
42912;SDS011;50720;54.324;18.558;2023-01-16T07:19:51;4.43;;;1.67;;
42912;SDS011;50720;54.324;18.558;2023-01-16T07:22:44;3.78;;;1.17;;
42912;SDS011;50720;54.324;18.558;2023-01-16T07:25:14;3.08;;;1.55;;
42912;SDS011;50720;54.324;18.558;2023-01-16T07:27:46;2.13;;;1.15;;
42912;SDS011;50720;54.324;18.558;2023-01-16T07:30:19;2.45;;;1.60;;
42912;SDS011;50720;54.324;18.558;2023-01-16T07:32:50;1.92;;;1.52;;
42912;SDS011;50720;54.324;18.558;2023-01-16T07:35:19;10.05;;;1.38;;
42912;SDS011;50720;54.324;18.558;2023-01-16T07:37:50;3.25;;;1.83;;
42912;SDS011;50720;54.324;18.558;2023-01-16T07:40:23;4.93;;;1.40;;
42912;SDS011;50720;54.324;18.558;2023-01-16T07:42:53;4.53;;;2.22;;
42912;SDS011;50720;54.324;18.558;2023-01-16T07:45:24;9.18;;;3.72;;
42912;SDS011;50720;54.324;18.558;2023-01-16T07:47:54;7.05;;;3.03;;
42912;SDS011;50720;54.324;18.558;2023-01-16T07:50:24;13.23;;;4.25;;
42912;SDS011;50720;54.324;18.558;2023-01-16T07:52:53;8.82;;;2.70;;
42912;SDS011;50720;54.324;18.558;2023-01-16T07:55:23;7.18;;;2.10;;
42912;SDS011;50720;54.324;18.558;2023-01-16T07:57:53;5.70;;;2.00;;
42912;SDS011;50720;54.324;18.558;2023-01-16T08:00:22;4.50;;;1.80;;
42912;SDS011;50720;54.324;18.558;2023-01-16T08:02:54;2.88;;;1.50;;
42912;SDS011;50720;54.324;18.558;2023-01-16T08:05:23;9.02;;;2.60;;
42912;SDS011;50720;54.324;18.558;2023-01-16T08:07:55;3.85;;;1.83;;
42912;SDS011;50720;54.324;18.558;2023-01-16T08:10:24;9.25;;;1.85;;
42912;SDS011;50720;54.324;18.558;2023-01-16T08:12:54;3.70;;;1.42;;
42912;SDS011;50720;54.324;18.558;2023-01-16T08:15:25;5.55;;;2.30;;
42912;SDS011;50720;54.324;18.558;2023-01-16T08:17:55;7.60;;;2.13;;
42912;SDS011;50720;54.324;18.558;2023-01-16T08:20:24;8.07;;;2.08;;
42912;SDS011;50720;54.324;18.558;2023-01-16T08:22:54;3.53;;;2.00;;
42912;SDS011;50720;54.324;18.558;2023-01-16T08:25:25;5.80;;;2.00;;
42912;SDS011;50720;54.324;18.558;2023-01-16T08:27:54;9.10;;;2.55;;
42912;SDS011;50720;54.324;18.558;2023-01-16T08:30:26;3.70;;;1.80;;
42912;SDS011;50720;54.324;18.558;2023-01-16T08:32:58;6.90;;;2.65;;
42912;SDS011;50720;54.324;18.558;2023-01-16T08:35:29;7.63;;;2.28;;
42912;SDS011;50720;54.324;18.558;2023-01-16T08:37:59;4.50;;;1.67;;
42912;SDS011;50720;54.324;18.558;2023-01-16T08:40:28;3.78;;;1.90;;
42912;SDS011;50720;54.324;18.558;2023-01-16T08:42:58;4.30;;;2.08;;
42912;SDS011;50720;54.324;18.558;2023-01-16T08:45:46;8.70;;;3.42;;
42912;SDS011;50720;54.324;18.558;2023-01-16T08:48:33;4.45;;;2.45;;
42912;SDS011;50720;54.324;18.558;2023-01-16T08:51:20;6.72;;;2.38;;
42912;SDS011;50720;54.324;18.558;2023-01-16T08:53:53;5.53;;;2.15;;
42912;SDS011;50720;54.324;18.558;2023-01-16T08:56:23;7.75;;;2.60;;
42912;SDS011;50720;54.324;18.558;2023-01-16T08:58:53;8.18;;;2.45;;
42912;SDS011;50720;54.324;18.558;2023-01-16T09:01:25;5.30;;;2.33;;
42912;SDS011;50720;54.324;18.558;2023-01-16T09:03:54;4.55;;;2.20;;
42912;SDS011;50720;54.324;18.558;2023-01-16T09:06:24;9.23;;;1.92;;
42912;SDS011;50720;54.324;18.558;2023-01-16T09:08:54;5.97;;;2.13;;
42912;SDS011;50720;54.324;18.558;2023-01-16T09:11:23;4.35;;;2.13;;
42912;SDS011;50720;54.324;18.558;2023-01-16T09:14:10;7.10;;;2.42;;
42912;SDS011;50720;54.324;18.558;2023-01-16T09:16:53;6.80;;;2.67;;
42912;SDS011;50720;54.324;18.558;2023-01-16T09:19:23;4.13;;;2.03;;
42912;SDS011;50720;54.324;18.558;2023-01-16T09:21:52;3.72;;;2.58;;
42912;SDS011;50720;54.324;18.558;2023-01-16T09:24:22;7.25;;;2.90;;
42912;SDS011;50720;54.324;18.558;2023-01-16T09:26:52;7.00;;;3.63;;
42912;SDS011;50720;54.324;18.558;2023-01-16T09:29:22;2.72;;;2.10;;
42912;SDS011;50720;54.324;18.558;2023-01-16T09:31:52;6.88;;;2.70;;
42912;SDS011;50720;54.324;18.558;2023-01-16T09:34:22;5.85;;;2.28;;
42912;SDS011;50720;54.324;18.558;2023-01-16T09:36:52;3.92;;;2.58;;
42912;SDS011;50720;54.324;18.558;2023-01-16T09:39:22;5.93;;;3.15;;
42912;SDS011;50720;54.324;18.558;2023-01-16T09:41:54;7.18;;;2.90;;
42912;SDS011;50720;54.324;18.558;2023-01-16T09:44:51;3.15;;;2.25;;
42912;SDS011;50720;54.324;18.558;2023-01-16T09:47:24;8.73;;;3.22;;
42912;SDS011;50720;54.324;18.558;2023-01-16T09:49:56;6.75;;;2.75;;
42912;SDS011;50720;54.324;18.558;2023-01-16T09:52:28;8.55;;;2.95;;
42912;SDS011;50720;54.324;18.558;2023-01-16T09:55:21;5.85;;;2.78;;
42912;SDS011;50720;54.324;18.558;2023-01-16T09:58:12;8.50;;;3.92;;
42912;SDS011;50720;54.324;18.558;2023-01-16T10:03:34;7.60;;;2.53;;
42912;SDS011;50720;54.324;18.558;2023-01-16T10:06:12;7.20;;;2.25;;
42912;SDS011;50720;54.324;18.558;2023-01-16T10:08:53;6.80;;;3.20;;
42912;SDS011;50720;54.324;18.558;2023-01-16T10:11:33;5.40;;;3.95;;
42912;SDS011;50720;54.324;18.558;2023-01-16T10:14:24;7.50;;;3.70;;
42912;SDS011;50720;54.324;18.558;2023-01-16T10:17:14;6.35;;;2.83;;
42912;SDS011;50720;54.324;18.558;2023-01-16T10:19:54;4.68;;;3.35;;
42912;SDS011;50720;54.324;18.558;2023-01-16T10:22:37;6.50;;;2.90;;
42912;SDS011;50720;54.324;18.558;2023-01-16T10:25:15;6.40;;;4.00;;
42912;SDS011;50720;54.324;18.558;2023-01-16T10:27:54;6.95;;;3.70;;
42912;SDS011;50720;54.324;18.558;2023-01-16T10:30:33;10.23;;;4.15;;
42912;SDS011;50720;54.324;18.558;2023-01-16T10:33:12;6.00;;;3.50;;
42912;SDS011;50720;54.324;18.558;2023-01-16T10:35:49;4.03;;;2.60;;
42912;SDS011;50720;54.324;18.558;2023-01-16T10:38:26;5.55;;;2.90;;
42912;SDS011;50720;54.324;18.558;2023-01-16T10:41:03;4.55;;;2.88;;
42912;SDS011;50720;54.324;18.558;2023-01-16T10:43:54;8.15;;;3.13;;
42912;SDS011;50720;54.324;18.558;2023-01-16T10:46:41;8.40;;;3.55;;
42912;SDS011;50720;54.324;18.558;2023-01-16T10:49:28;5.15;;;2.78;;
42912;SDS011;50720;54.324;18.558;2023-01-16T10:52:00;4.78;;;2.67;;
42912;SDS011;50720;54.324;18.558;2023-01-16T10:54:32;6.43;;;2.25;;
42912;SDS011;50720;54.324;18.558;2023-01-16T10:57:04;7.57;;;2.78;;
42912;SDS011;50720;54.324;18.558;2023-01-16T10:59:42;5.30;;;2.35;;
42912;SDS011;50720;54.324;18.558;2023-01-16T11:02:16;4.70;;;1.80;;
42912;SDS011;50720;54.324;18.558;2023-01-16T11:04:51;5.25;;;2.13;;
42912;SDS011;50720;54.324;18.558;2023-01-16T11:07:24;4.18;;;2.38;;
42912;SDS011;50720;54.324;18.558;2023-01-16T11:09:56;7.03;;;2.65;;
42912;SDS011;50720;54.324;18.558;2023-01-16T11:12:29;4.63;;;2.88;;
42912;SDS011;50720;54.324;18.558;2023-01-16T11:15:18;6.85;;;3.13;;
42912;SDS011;50720;54.324;18.558;2023-01-16T11:18:20;5.85;;;2.42;;
42912;SDS011;50720;54.324;18.558;2023-01-16T11:20:58;5.57;;;2.73;;
42912;SDS011;50720;54.324;18.558;2023-01-16T11:23:38;4.25;;;2.30;;
42912;SDS011;50720;54.324;18.558;2023-01-16T11:26:09;6.40;;;3.45;;
42912;SDS011;50720;54.324;18.558;2023-01-16T11:28:40;5.70;;;2.95;;
42912;SDS011;50720;54.324;18.558;2023-01-16T11:31:18;5.10;;;2.00;;
42912;SDS011;50720;54.324;18.558;2023-01-16T11:33:51;4.93;;;2.03;;
42912;SDS011;50720;54.324;18.558;2023-01-16T11:36:29;4.13;;;2.05;;
42912;SDS011;50720;54.324;18.558;2023-01-16T11:39:03;7.57;;;2.72;;
42912;SDS011;50720;54.324;18.558;2023-01-16T11:41:36;7.07;;;2.38;;
42912;SDS011;50720;54.324;18.558;2023-01-16T11:44:11;5.32;;;2.67;;
42912;SDS011;50720;54.324;18.558;2023-01-16T11:47:02;9.45;;;4.60;;
42912;SDS011;50720;54.324;18.558;2023-01-16T11:49:35;7.63;;;4.25;;
42912;SDS011;50720;54.324;18.558;2023-01-16T11:52:12;9.23;;;3.25;;
42912;SDS011;50720;54.324;18.558;2023-01-16T11:54:56;7.07;;;2.95;;
42912;SDS011;50720;54.324;18.558;2023-01-16T11:57:29;8.23;;;3.67;;
42912;SDS011;50720;54.324;18.558;2023-01-16T12:00:24;6.47;;;3.63;;
42912;SDS011;50720;54.324;18.558;2023-01-16T12:03:14;8.15;;;3.95;;
42912;SDS011;50720;54.324;18.558;2023-01-16T12:06:07;8.00;;;2.95;;
42912;SDS011;50720;54.324;18.558;2023-01-16T12:08:51;6.47;;;3.10;;
42912;SDS011;50720;54.324;18.558;2023-01-16T12:15:03;10.70;;;4.88;;
42912;SDS011;50720;54.324;18.558;2023-01-16T12:17:41;9.95;;;3.50;;
42912;SDS011;50720;54.324;18.558;2023-01-16T12:20:26;14.18;;;5.90;;
42912;SDS011;50720;54.324;18.558;2023-01-16T12:23:04;7.18;;;3.80;;
42912;SDS011;50720;54.324;18.558;2023-01-16T12:25:57;11.90;;;4.28;;
42912;SDS011;50720;54.324;18.558;2023-01-16T12:28:41;5.50;;;3.65;;
42912;SDS011;50720;54.324;18.558;2023-01-16T12:31:25;13.10;;;4.68;;
42912;SDS011;50720;54.324;18.558;2023-01-16T12:34:09;10.30;;;4.32;;
42912;SDS011;50720;54.324;18.558;2023-01-16T12:36:56;9.75;;;4.50;;
42912;SDS011;50720;54.324;18.558;2023-01-16T12:39:37;9.25;;;4.45;;
42912;SDS011;50720;54.324;18.558;2023-01-16T12:42:18;11.27;;;4.45;;
42912;SDS011;50720;54.324;18.558;2023-01-16T12:45:23;8.20;;;4.35;;
42912;SDS011;50720;54.324;18.558;2023-01-16T12:48:08;8.25;;;3.95;;
42912;SDS011;50720;54.324;18.558;2023-01-16T12:50:54;12.20;;;5.10;;
42912;SDS011;50720;54.324;18.558;2023-01-16T12:53:39;8.80;;;4.60;;
42912;SDS011;50720;54.324;18.558;2023-01-16T12:56:30;9.82;;;4.38;;
42912;SDS011;50720;54.324;18.558;2023-01-16T12:59:13;9.23;;;3.92;;
42912;SDS011;50720;54.324;18.558;2023-01-16T13:01:49;15.07;;;4.25;;
42912;SDS011;50720;54.324;18.558;2023-01-16T13:04:23;12.82;;;4.72;;
42912;SDS011;50720;54.324;18.558;2023-01-16T13:06:57;7.57;;;3.78;;
42912;SDS011;50720;54.324;18.558;2023-01-16T13:09:32;10.60;;;4.95;;
42912;SDS011;50720;54.324;18.558;2023-01-16T13:12:08;10.60;;;4.40;;
42912;SDS011;50720;54.324;18.558;2023-01-16T13:15:04;9.43;;;4.57;;
42912;SDS011;50720;54.324;18.558;2023-01-16T13:17:41;11.48;;;5.35;;
42912;SDS011;50720;54.324;18.558;2023-01-16T13:20:13;10.77;;;5.57;;
42912;SDS011;50720;54.324;18.558;2023-01-16T13:25:20;12.90;;;4.28;;
42912;SDS011;50720;54.324;18.558;2023-01-16T13:27:56;7.22;;;4.07;;
42912;SDS011;50720;54.324;18.558;2023-01-16T13:30:30;9.60;;;4.43;;
42912;SDS011;50720;54.324;18.558;2023-01-16T13:33:01;8.63;;;4.15;;
42912;SDS011;50720;54.324;18.558;2023-01-16T13:35:37;9.90;;;4.63;;
42912;SDS011;50720;54.324;18.558;2023-01-16T13:38:33;7.55;;;4.00;;
42912;SDS011;50720;54.324;18.558;2023-01-16T13:41:14;11.73;;;5.97;;
42912;SDS011;50720;54.324;18.558;2023-01-16T13:43:49;7.63;;;3.85;;
42912;SDS011;50720;54.324;18.558;2023-01-16T13:46:42;9.75;;;3.85;;
42912;SDS011;50720;54.324;18.558;2023-01-16T13:49:17;7.03;;;3.88;;
42912;SDS011;50720;54.324;18.558;2023-01-16T13:51:52;11.02;;;4.35;;
42912;SDS011;50720;54.324;18.558;2023-01-16T13:54:23;10.37;;;4.90;;
42912;SDS011;50720;54.324;18.558;2023-01-16T13:56:56;11.27;;;4.97;;
42912;SDS011;50720;54.324;18.558;2023-01-16T13:59:39;13.13;;;5.22;;
42912;SDS011;50720;54.324;18.558;2023-01-16T14:02:39;11.20;;;4.50;;
42912;SDS011;50720;54.324;18.558;2023-01-16T14:05:19;11.45;;;4.60;;
42912;SDS011;50720;54.324;18.558;2023-01-16T14:08:12;9.43;;;5.07;;
42912;SDS011;50720;54.324;18.558;2023-01-16T14:11:12;6.15;;;3.92;;
42912;SDS011;50720;54.324;18.558;2023-01-16T14:14:20;15.70;;;5.85;;
42912;SDS011;50720;54.324;18.558;2023-01-16T14:17:17;10.15;;;4.78;;
42912;SDS011;50720;54.324;18.558;2023-01-16T14:19:57;11.63;;;4.63;;
42912;SDS011;50720;54.324;18.558;2023-01-16T14:22:34;15.35;;;6.60;;
42912;SDS011;50720;54.324;18.558;2023-01-16T14:25:25;14.40;;;6.22;;
42912;SDS011;50720;54.324;18.558;2023-01-16T14:27:57;16.58;;;6.30;;
42912;SDS011;50720;54.324;18.558;2023-01-16T14:30:29;16.70;;;6.63;;
42912;SDS011;50720;54.324;18.558;2023-01-16T14:33:02;17.77;;;8.02;;
42912;SDS011;50720;54.324;18.558;2023-01-16T14:35:40;21.88;;;8.30;;
42912;SDS011;50720;54.324;18.558;2023-01-16T14:38:17;23.50;;;8.32;;
42912;SDS011;50720;54.324;18.558;2023-01-16T14:40:49;17.40;;;7.90;;
42912;SDS011;50720;54.324;18.558;2023-01-16T14:43:42;17.95;;;8.65;;
42912;SDS011;50720;54.324;18.558;2023-01-16T14:46:52;14.65;;;8.27;;
42912;SDS011;50720;54.324;18.558;2023-01-16T14:52:47;11.30;;;7.13;;
42912;SDS011;50720;54.324;18.558;2023-01-16T14:55:45;12.35;;;7.38;;
42912;SDS011;50720;54.324;18.558;2023-01-16T14:58:22;18.80;;;7.70;;
42912;SDS011;50720;54.324;18.558;2023-01-16T15:01:00;18.17;;;8.02;;
42912;SDS011;50720;54.324;18.558;2023-01-16T15:04:02;18.00;;;9.18;;
42912;SDS011;50720;54.324;18.558;2023-01-16T15:06:36;21.08;;;9.15;;
42912;SDS011;50720;54.324;18.558;2023-01-16T15:09:12;17.90;;;8.23;;
42912;SDS011;50720;54.324;18.558;2023-01-16T15:11:49;19.95;;;9.60;;
42912;SDS011;50720;54.324;18.558;2023-01-16T15:14:22;18.40;;;9.07;;
42912;SDS011;50720;54.324;18.558;2023-01-16T15:17:00;20.80;;;10.68;;
42912;SDS011;50720;54.324;18.558;2023-01-16T15:19:59;19.20;;;10.15;;
42912;SDS011;50720;54.324;18.558;2023-01-16T15:22:52;26.98;;;10.77;;
42912;SDS011;50720;54.324;18.558;2023-01-16T15:25:28;24.00;;;12.65;;
42912;SDS011;50720;54.324;18.558;2023-01-16T15:28:23;26.50;;;13.38;;
42912;SDS011;50720;54.324;18.558;2023-01-16T15:31:03;27.08;;;12.48;;
42912;SDS011;50720;54.324;18.558;2023-01-16T15:33:35;28.92;;;14.90;;
42912;SDS011;50720;54.324;18.558;2023-01-16T15:36:21;27.77;;;12.45;;
42912;SDS011;50720;54.324;18.558;2023-01-16T15:38:53;27.58;;;13.20;;
42912;SDS011;50720;54.324;18.558;2023-01-16T15:41:25;25.08;;;12.65;;
42912;SDS011;50720;54.324;18.558;2023-01-16T15:44:15;29.70;;;14.63;;
42912;SDS011;50720;54.324;18.558;2023-01-16T15:47:15;28.92;;;13.73;;